Latest News: Website changes Read more...
 Looking for the classic swell model? Navbar → Wave Models → Classic Models

CAPE COD BAY, MA - 221

GPS Time
Latitude
Degrees
Longitude
Degrees
Gap
 
Distance
NM
Speed
Knots
Direction
Degrees
Apr 22, 02:56 41.83996° -70.32866° 30 min 0.02 0.00
124°
Apr 22, 02:26 41.83997° -70.32868° 30 min 0.02 0.00
Apr 22, 01:56 41.83997° -70.32868° 30 min 0.02 0.00
Apr 22, 01:26 41.83995° -70.32868° 30 min 0.02 0.01
180°
Apr 22, 00:56 41.84002° -70.32868° 30 min 0.02 0.01
180°
Apr 22, 00:26 41.84006° -70.32868° 30 min 0.02 0.01
160°
Apr 21, 23:56 41.84013° -70.32872° 30 min 0.03 0.00
180°
Apr 21, 23:26 41.84014° -70.32872° 30 min 0.03 0.00
90°
Apr 21, 22:56 41.84014° -70.32874° 30 min 0.03 0.00
180°
Apr 21, 22:26 41.84015° -70.32874° 30 min 0.03 0.00
154°
Apr 21, 21:56 41.84019° -70.32877° 30 min 0.03 0.00
37°
Apr 21, 21:26 41.84016° -70.32879° 30 min 0.03 0.00
304°
Apr 21, 20:56 41.84015° -70.32877° 30 min 0.03 0.00
Apr 21, 20:26 41.84012° -70.32877° 30 min 0.03 0.00
90°
Apr 21, 19:56 41.84012° -70.32879° 30 min 0.03 0.00
Apr 21, 19:26 41.84012° -70.32879° 30 min 0.03 0.00
Apr 21, 18:56 41.84010° -70.32879° 30 min 0.02 0.00
42°
Apr 21, 18:26 41.84008° -70.32881° 30 min 0.02 0.01
340°
Apr 21, 17:56 41.84003° -70.32879° 30 min 0.02 0.01
312°
Apr 21, 17:26 41.84000° -70.32874° 30 min 0.02 0.01
297°
Apr 21, 16:56 41.83998° -70.32868° 30 min 0.02 0.01
Apr 21, 16:26 41.83994° -70.32868° 30 min 0.02 0.00
304°
Apr 21, 15:56 41.83993° -70.32866° 30 min 0.02 0.00
90°
Apr 21, 15:26 41.83993° -70.32868° 30 min 0.02 0.00
304°
Apr 21, 14:56 41.83992° -70.32866° 30 min 0.02 0.00
180°
Apr 21, 14:26 41.83993° -70.32866° 30 min 0.02 0.00
Apr 21, 13:56 41.83993° -70.32866° 30 min 0.02 0.00
180°
Apr 21, 13:26 41.83995° -70.32866° 30 min 0.02 0.00
180°
Apr 21, 12:56 41.83996° -70.32866° 30 min 0.02 0.00
Apr 21, 12:26 41.83995° -70.32866° 30 min 0.02 0.01
155°
Apr 21, 11:56 41.84005° -70.32872° 30 min 0.02 0.00
154°
Apr 21, 11:26 41.84008° -70.32874° 30 min 0.02 0.00
114°
Apr 21, 10:56 41.84009° -70.32877° 30 min 0.02 0.01
180°
Apr 21, 10:26 41.84013° -70.32877° 30 min 0.03 0.00
114°
Apr 21, 09:56 41.84014° -70.32879° 30 min 0.03 0.00
270°
Apr 21, 09:26 41.84014° -70.32874° 30 min 0.03 0.00
180°
Apr 21, 08:56 41.84015° -70.32874° 30 min 0.03 0.00
90°
Apr 21, 08:26 41.84015° -70.32877° 1 h 0.03 0.00
304°
Apr 21, 07:26 41.84014° -70.32874° 30 min 0.03 0.00
180°
Apr 21, 06:56 41.84018° -70.32874° 30 min 0.03 0.00
26°
Apr 21, 06:26 41.84014° -70.32877° 30 min 0.03 0.00
Apr 21, 05:56 41.84011° -70.32877° 30 min 0.03 0.00
Apr 21, 05:26 41.84010° -70.32877° 30 min 0.02 0.01
Apr 21, 04:56 41.84006° -70.32877° 30 min 0.02 0.01
345°
Apr 21, 04:26 41.83999° -70.32874° 30 min 0.02 0.01
321°
Apr 21, 03:56 41.83995° -70.32870° 30 min 0.02 0.00
315°
Apr 21, 03:26 41.83994° -70.32868° 30 min 0.02 0.00
304°
Apr 21, 02:56 41.83993° -70.32866° 30 min 0.02 0.00
318°
Apr 21, 02:26 41.83991° -70.32864° 30 min 0.02 0.00
209°
Apr 21, 01:56 41.83994° -70.32861° 30 min 0.02 0.00
Apr 21, 01:26 41.83993° -70.32861° 30 min 0.02 0.00
56°
Apr 21, 00:56 41.83992° -70.32864° 30 min 0.02 0.00
180°
Apr 21, 00:26 41.83995° -70.32864° 30 min 0.02 0.00
143°
Apr 20, 23:56 41.83997° -70.32866° 30 min 0.02 0.01
146°
Apr 20, 23:26 41.84002° -70.32870° 1 h 0.02 0.01
180°
Apr 20, 22:26 41.84015° -70.32870° 30 min 0.03 0.00
109°
Apr 20, 21:56 41.84016° -70.32874° 30 min 0.03 0.00
180°
Apr 20, 21:26 41.84020° -70.32874° 30 min 0.03 0.00
Apr 20, 20:56 41.84018° -70.32874° 30 min 0.03 0.00
Apr 20, 20:26 41.84018° -70.32874° 30 min 0.03 0.00
Apr 20, 19:56 41.84016° -70.32874° 30 min 0.03 0.00
Apr 20, 19:26 41.84016° -70.32874° 30 min 0.03 0.00
Apr 20, 18:56 41.84016° -70.32874° 30 min 0.03 0.00
180°
Apr 20, 18:26 41.84018° -70.32874° 30 min 0.03 0.00
Apr 20, 17:56 41.84016° -70.32874° 30 min 0.03 0.01
Apr 20, 17:26 41.84012° -70.32874° 30 min 0.03 0.01
327°
Apr 20, 16:56 41.84007° -70.32870° 30 min 0.02 0.01
353°
Apr 20, 16:26 41.83998° -70.32868° 30 min 0.02 0.00
331°
Apr 20, 15:56 41.83995° -70.32866° 30 min 0.02 0.00
323°
Apr 20, 15:26 41.83993° -70.32864° 1 h 0.02 0.00
299°
Apr 20, 14:26 41.83991° -70.32859° 30 min 0.02 0.00
90°
Apr 20, 13:56 41.83991° -70.32864° 30 min 0.02 0.00
Apr 20, 13:26 41.83991° -70.32864° 30 min 0.02 0.00
Apr 20, 12:56 41.83990° -70.32864° 30 min 0.02 0.00
180°
Apr 20, 12:26 41.83991° -70.32864° 30 min 0.02 0.00
180°
Apr 20, 11:56 41.83993° -70.32864° 30 min 0.02 0.00
180°
Apr 20, 11:26 41.83994° -70.32864° 30 min 0.02 0.01
147°
Apr 20, 10:56 41.83999° -70.32868° 30 min 0.02 0.01
166°
Apr 20, 10:26 41.84011° -70.32872° 30 min 0.03 0.00
180°
Apr 20, 09:56 41.84014° -70.32872° 30 min 0.03 0.00
180°
Apr 20, 09:26 41.84016° -70.32872° 30 min 0.03 0.00
180°
Apr 20, 08:56 41.84018° -70.32872° 30 min 0.03 0.00
Apr 20, 08:26 41.84018° -70.32872° 30 min 0.03 0.00
143°
Apr 20, 07:56 41.84020° -70.32874° 30 min 0.03 0.00
257°
Apr 20, 07:26 41.84021° -70.32870° 30 min 0.03 0.00
Apr 20, 06:56 41.84020° -70.32870° 30 min 0.03 0.00
37°
Apr 20, 06:26 41.84018° -70.32872° 30 min 0.03 0.00
56°
Apr 20, 05:56 41.84016° -70.32874° 30 min 0.03 0.00
270°
Apr 20, 05:26 41.84016° -70.32870° 30 min 0.03 0.00
Apr 20, 04:56 41.84014° -70.32870° 30 min 0.03 0.01
343°
Apr 20, 04:26 41.84005° -70.32866° 30 min 0.02 0.01
349°
Apr 20, 03:56 41.83996° -70.32864° 30 min 0.02 0.00
236°
Apr 20, 03:26 41.83997° -70.32861° 30 min 0.02 0.00
Apr 20, 02:56 41.83994° -70.32861° 30 min 0.02 0.00
270°
Apr 20, 02:26 41.83994° -70.32859° 30 min 0.02 0.00
180°
Apr 20, 01:56 41.83996° -70.32859° 30 min 0.02 0.00
26°
Apr 20, 01:26 41.83993° -70.32861° 30 min 0.02 0.00
270°
Apr 20, 00:56 41.83993° -70.32859° 30 min 0.02 0.00
198°
Apr 20, 00:26 41.83996° -70.32858° 30 min 0.02 0.00
45°
Apr 19, 23:56 41.83995° -70.32859° 30 min 0.02 0.00
124°
Apr 19, 23:26 41.83996° -70.32861° 30 min 0.02 0.00
90°
Apr 19, 22:56 41.83996° -70.32866° 30 min 0.02 0.01
165°
Apr 19, 22:26 41.84007° -70.32870° 30 min 0.02 0.01
190°
Apr 19, 21:56 41.84013° -70.32868° 30 min 0.03 0.00
180°
Apr 19, 21:26 41.84014° -70.32868° 30 min 0.03 0.01
169°
Apr 19, 20:56 41.84020° -70.32870° 30 min 0.03 0.00
180°
Apr 19, 20:26 41.84021° -70.32870° 30 min 0.03 0.00
248°
Apr 19, 19:56 41.84022° -70.32866° 30 min 0.03 0.00
29°
Apr 19, 19:26 41.84019° -70.32868° 30 min 0.03 0.00
236°
Apr 19, 18:56 41.84020° -70.32866° 30 min 0.03 0.00
270°
Apr 19, 18:26 41.84020° -70.32861° 30 min 0.03 0.01
Apr 19, 17:56 41.84015° -70.32861° 30 min 0.03 0.00
Apr 19, 17:26 41.84014° -70.32861° 30 min 0.03 0.00
Apr 19, 16:56 41.84013° -70.32861° 30 min 0.03 0.01
320°
Apr 19, 16:26 41.84010° -70.32858° 30 min 0.03 0.01
321°
Apr 19, 15:56 41.84006° -70.32853° 30 min 0.03 0.01
Apr 19, 15:26 41.84000° -70.32853° 30 min 0.03 0.01
Apr 19, 14:56 41.83994° -70.32853° 30 min 0.02 0.00
71°
Apr 19, 14:26 41.83993° -70.32858° 30 min 0.02 0.00
Apr 19, 13:56 41.83991° -70.32858° 30 min 0.02 0.00
180°
Apr 19, 13:26 41.83993° -70.32858° 30 min 0.02 0.00
304°
Apr 19, 12:56 41.83992° -70.32855° 30 min 0.02 0.00
Apr 19, 12:26 41.83992° -70.32855° 30 min 0.02 0.00
143°
Apr 19, 11:56 41.83994° -70.32858° 30 min 0.02 0.00
Apr 19, 11:26 41.83994° -70.32858° 30 min 0.02 0.00
180°
Apr 19, 10:56 41.83995° -70.32858° 1 h 0.02 0.01
194°
Apr 19, 09:56 41.84009° -70.32853° 30 min 0.03 0.01
145°
Apr 19, 09:26 41.84015° -70.32859° 30 min 0.03 0.00
143°
Apr 19, 08:56 41.84018° -70.32861° 30 min 0.03 0.01
132°
Apr 19, 08:26 41.84021° -70.32866° 30 min 0.03 0.00
90°
Apr 19, 07:56 41.84021° -70.32868° 30 min 0.03 0.00
Apr 19, 07:26 41.84021° -70.32868° 30 min 0.03 0.01
Apr 19, 06:56 41.84016° -70.32868° 30 min 0.03 0.00
180°
Apr 19, 06:26 41.84018° -70.32868° 30 min 0.03 0.00
270°
Apr 19, 05:56 41.84018° -70.32866° 30 min 0.03 0.00
90°
Apr 19, 05:26 41.84018° -70.32868° 30 min 0.03 0.00
304°
Apr 19, 04:56 41.84016° -70.32866° 30 min 0.03 0.00
37°
Apr 19, 04:26 41.84014° -70.32868° 30 min 0.03 0.00
270°